sensor_id;sensor_type;location;lat;lon;timestamp;temperature;humidity
52016;DHT22;38032;53.326;6.472;2023-11-21T00:01:02;10.90;99.90
52016;DHT22;38032;53.326;6.472;2023-11-21T00:03:30;11.00;99.90
52016;DHT22;38032;53.326;6.472;2023-11-21T00:05:56;11.00;99.90
52016;DHT22;38032;53.326;6.472;2023-11-21T00:08:22;11.00;99.90
52016;DHT22;38032;53.326;6.472;2023-11-21T00:10:47;11.00;99.90
52016;DHT22;38032;53.326;6.472;2023-11-21T00:13:14;10.90;99.90
52016;DHT22;38032;53.326;6.472;2023-11-21T00:15:39;11.00;99.90
52016;DHT22;38032;53.326;6.472;2023-11-21T00:18:06;11.00;99.90
52016;DHT22;38032;53.326;6.472;2023-11-21T00:20:32;11.00;99.90
52016;DHT22;38032;53.326;6.472;2023-11-21T00:22:58;11.00;99.90
52016;DHT22;38032;53.326;6.472;2023-11-21T00:25:25;11.00;99.90
52016;DHT22;38032;53.326;6.472;2023-11-21T00:27:51;11.00;99.90
52016;DHT22;38032;53.326;6.472;2023-11-21T00:30:16;11.00;99.90
52016;DHT22;38032;53.326;6.472;2023-11-21T00:32:42;11.00;99.90
52016;DHT22;38032;53.326;6.472;2023-11-21T00:35:09;11.00;99.90
52016;DHT22;38032;53.326;6.472;2023-11-21T00:37:34;11.00;99.90
52016;DHT22;38032;53.326;6.472;2023-11-21T00:40:01;11.00;99.90
52016;DHT22;38032;53.326;6.472;2023-11-21T00:42:30;11.00;99.90
52016;DHT22;38032;53.326;6.472;2023-11-21T00:44:59;11.00;99.90
52016;DHT22;38032;53.326;6.472;2023-11-21T00:47:25;11.00;99.90
52016;DHT22;38032;53.326;6.472;2023-11-21T00:49:51;11.00;99.90
52016;DHT22;38032;53.326;6.472;2023-11-21T00:52:17;11.10;99.90
52016;DHT22;38032;53.326;6.472;2023-11-21T00:54:42;11.00;99.90
52016;DHT22;38032;53.326;6.472;2023-11-21T00:57:08;11.10;99.90
52016;DHT22;38032;53.326;6.472;2023-11-21T00:59:34;11.10;99.90
52016;DHT22;38032;53.326;6.472;2023-11-21T01:02:00;11.10;99.90
52016;DHT22;38032;53.326;6.472;2023-11-21T01:04:27;11.10;99.90
52016;DHT22;38032;53.326;6.472;2023-11-21T01:06:53;11.10;99.90
52016;DHT22;38032;53.326;6.472;2023-11-21T01:09:19;11.10;99.90
52016;DHT22;38032;53.326;6.472;2023-11-21T01:11:45;11.10;99.90
52016;DHT22;38032;53.326;6.472;2023-11-21T01:14:11;11.10;99.90
52016;DHT22;38032;53.326;6.472;2023-11-21T01:16:39;11.10;99.90
52016;DHT22;38032;53.326;6.472;2023-11-21T01:19:04;11.10;99.90
52016;DHT22;38032;53.326;6.472;2023-11-21T01:21:30;11.10;99.90
52016;DHT22;38032;53.326;6.472;2023-11-21T01:23:56;11.10;99.90
52016;DHT22;38032;53.326;6.472;2023-11-21T01:26:22;11.10;99.90
52016;DHT22;38032;53.326;6.472;2023-11-21T01:28:48;11.10;99.90
52016;DHT22;38032;53.326;6.472;2023-11-21T01:31:15;11.10;99.90
52016;DHT22;38032;53.326;6.472;2023-11-21T01:33:41;11.10;99.90
52016;DHT22;38032;53.326;6.472;2023-11-21T01:36:07;11.00;99.90
52016;DHT22;38032;53.326;6.472;2023-11-21T01:38:33;11.00;99.90
52016;DHT22;38032;53.326;6.472;2023-11-21T01:40:59;11.00;99.90
52016;DHT22;38032;53.326;6.472;2023-11-21T01:43:27;11.00;99.90
52016;DHT22;38032;53.326;6.472;2023-11-21T01:45:54;11.00;99.90
52016;DHT22;38032;53.326;6.472;2023-11-21T01:48:23;11.00;99.90
52016;DHT22;38032;53.326;6.472;2023-11-21T01:50:49;11.00;99.90
52016;DHT22;38032;53.326;6.472;2023-11-21T01:53:15;11.00;99.90
52016;DHT22;38032;53.326;6.472;2023-11-21T01:55:42;11.00;99.90
52016;DHT22;38032;53.326;6.472;2023-11-21T01:58:09;11.00;99.90
52016;DHT22;38032;53.326;6.472;2023-11-21T02:00:35;11.00;99.90
52016;DHT22;38032;53.326;6.472;2023-11-21T02:03:04;11.00;99.90
52016;DHT22;38032;53.326;6.472;2023-11-21T02:05:30;11.00;99.90
52016;DHT22;38032;53.326;6.472;2023-11-21T02:07:55;11.00;99.90
52016;DHT22;38032;53.326;6.472;2023-11-21T02:10:22;11.00;99.90
52016;DHT22;38032;53.326;6.472;2023-11-21T02:12:49;11.00;99.90
52016;DHT22;38032;53.326;6.472;2023-11-21T02:15:16;11.00;99.90
52016;DHT22;38032;53.326;6.472;2023-11-21T02:17:46;10.90;99.90
52016;DHT22;38032;53.326;6.472;2023-11-21T02:20:13;10.90;99.90
52016;DHT22;38032;53.326;6.472;2023-11-21T02:22:41;10.90;99.90
52016;DHT22;38032;53.326;6.472;2023-11-21T02:25:09;10.90;99.90
52016;DHT22;38032;53.326;6.472;2023-11-21T02:27:34;10.90;99.90
52016;DHT22;38032;53.326;6.472;2023-11-21T02:30:00;10.90;99.90
52016;DHT22;38032;53.326;6.472;2023-11-21T02:32:27;10.90;99.90
52016;DHT22;38032;53.326;6.472;2023-11-21T02:34:52;10.90;99.90
52016;DHT22;38032;53.326;6.472;2023-11-21T02:37:21;10.90;99.90
52016;DHT22;38032;53.326;6.472;2023-11-21T02:39:47;10.90;99.90
52016;DHT22;38032;53.326;6.472;2023-11-21T02:42:13;10.80;99.90
52016;DHT22;38032;53.326;6.472;2023-11-21T02:44:38;10.80;99.90
52016;DHT22;38032;53.326;6.472;2023-11-21T02:47:04;10.80;99.90
52016;DHT22;38032;53.326;6.472;2023-11-21T02:49:31;10.90;99.90
52016;DHT22;38032;53.326;6.472;2023-11-21T02:51:57;10.80;99.90
52016;DHT22;38032;53.326;6.472;2023-11-21T02:54:23;10.80;99.90
52016;DHT22;38032;53.326;6.472;2023-11-21T02:56:49;10.80;99.90
52016;DHT22;38032;53.326;6.472;2023-11-21T02:59:15;10.90;99.90
52016;DHT22;38032;53.326;6.472;2023-11-21T03:01:41;10.90;99.90
52016;DHT22;38032;53.326;6.472;2023-11-21T03:04:07;10.90;99.90
52016;DHT22;38032;53.326;6.472;2023-11-21T03:06:33;10.90;99.90
52016;DHT22;38032;53.326;6.472;2023-11-21T03:08:59;10.90;99.90
52016;DHT22;38032;53.326;6.472;2023-11-21T03:11:25;10.90;99.90
52016;DHT22;38032;53.326;6.472;2023-11-21T03:13:51;10.90;99.90
52016;DHT22;38032;53.326;6.472;2023-11-21T03:16:16;10.90;99.90
52016;DHT22;38032;53.326;6.472;2023-11-21T03:18:42;10.80;99.90
52016;DHT22;38032;53.326;6.472;2023-11-21T03:21:08;10.90;99.90
52016;DHT22;38032;53.326;6.472;2023-11-21T03:23:35;10.80;99.90
52016;DHT22;38032;53.326;6.472;2023-11-21T03:26:01;10.80;99.90
52016;DHT22;38032;53.326;6.472;2023-11-21T03:28:27;10.80;99.90
52016;DHT22;38032;53.326;6.472;2023-11-21T03:30:54;10.80;99.90
52016;DHT22;38032;53.326;6.472;2023-11-21T03:33:20;10.80;99.90
52016;DHT22;38032;53.326;6.472;2023-11-21T03:35:46;10.80;99.90
52016;DHT22;38032;53.326;6.472;2023-11-21T03:38:11;10.80;99.90
52016;DHT22;38032;53.326;6.472;2023-11-21T03:40:38;10.80;99.90
52016;DHT22;38032;53.326;6.472;2023-11-21T03:43:05;10.80;99.90
52016;DHT22;38032;53.326;6.472;2023-11-21T03:45:31;10.80;99.90
52016;DHT22;38032;53.326;6.472;2023-11-21T03:47:57;10.80;99.90
52016;DHT22;38032;53.326;6.472;2023-11-21T03:50:23;10.70;99.90
52016;DHT22;38032;53.326;6.472;2023-11-21T03:52:49;10.70;99.90
52016;DHT22;38032;53.326;6.472;2023-11-21T03:55:14;10.70;99.90
52016;DHT22;38032;53.326;6.472;2023-11-21T03:57:40;10.70;99.90
52016;DHT22;38032;53.326;6.472;2023-11-21T04:00:06;10.70;99.90
52016;DHT22;38032;53.326;6.472;2023-11-21T04:02:34;10.70;99.90
52016;DHT22;38032;53.326;6.472;2023-11-21T04:05:00;10.70;99.90
52016;DHT22;38032;53.326;6.472;2023-11-21T04:07:26;10.60;99.90
52016;DHT22;38032;53.326;6.472;2023-11-21T04:09:52;10.60;99.90
52016;DHT22;38032;53.326;6.472;2023-11-21T04:12:19;10.50;99.90
52016;DHT22;38032;53.326;6.472;2023-11-21T04:14:45;10.50;99.90
52016;DHT22;38032;53.326;6.472;2023-11-21T04:17:11;10.50;99.90
52016;DHT22;38032;53.326;6.472;2023-11-21T04:19:36;10.50;99.90
52016;DHT22;38032;53.326;6.472;2023-11-21T04:22:02;10.50;99.90
52016;DHT22;38032;53.326;6.472;2023-11-21T04:24:29;10.40;99.90
52016;DHT22;38032;53.326;6.472;2023-11-21T04:26:55;10.40;99.90
52016;DHT22;38032;53.326;6.472;2023-11-21T04:29:21;10.40;99.90
52016;DHT22;38032;53.326;6.472;2023-11-21T04:31:47;10.40;99.90
52016;DHT22;38032;53.326;6.472;2023-11-21T04:34:15;10.30;99.90
52016;DHT22;38032;53.326;6.472;2023-11-21T04:36:40;10.30;99.90
52016;DHT22;38032;53.326;6.472;2023-11-21T04:39:06;10.30;99.90
52016;DHT22;38032;53.326;6.472;2023-11-21T04:41:32;10.30;99.90
52016;DHT22;38032;53.326;6.472;2023-11-21T04:43:58;10.30;99.90
52016;DHT22;38032;53.326;6.472;2023-11-21T04:46:26;10.30;99.90
52016;DHT22;38032;53.326;6.472;2023-11-21T04:48:52;10.20;99.90
52016;DHT22;38032;53.326;6.472;2023-11-21T04:51:17;10.20;99.90
52016;DHT22;38032;53.326;6.472;2023-11-21T04:53:43;10.20;99.90
52016;DHT22;38032;53.326;6.472;2023-11-21T04:56:09;10.20;99.90
52016;DHT22;38032;53.326;6.472;2023-11-21T04:58:35;10.20;99.90
52016;DHT22;38032;53.326;6.472;2023-11-21T05:01:01;10.20;99.90
52016;DHT22;38032;53.326;6.472;2023-11-21T05:03:27;10.20;99.90
52016;DHT22;38032;53.326;6.472;2023-11-21T05:05:55;10.20;99.90
52016;DHT22;38032;53.326;6.472;2023-11-21T05:08:21;10.20;99.90
52016;DHT22;38032;53.326;6.472;2023-11-21T05:10:48;10.20;99.90
52016;DHT22;38032;53.326;6.472;2023-11-21T05:13:14;10.20;99.90
52016;DHT22;38032;53.326;6.472;2023-11-21T05:15:43;10.10;99.90
52016;DHT22;38032;53.326;6.472;2023-11-21T05:18:09;10.20;99.90
52016;DHT22;38032;53.326;6.472;2023-11-21T05:20:36;10.20;99.90
52016;DHT22;38032;53.326;6.472;2023-11-21T05:23:03;10.20;99.90
52016;DHT22;38032;53.326;6.472;2023-11-21T05:25:29;10.20;99.90
52016;DHT22;38032;53.326;6.472;2023-11-21T05:27:55;10.20;99.90
52016;DHT22;38032;53.326;6.472;2023-11-21T05:30:21;10.20;99.90
52016;DHT22;38032;53.326;6.472;2023-11-21T05:32:47;10.10;99.90
52016;DHT22;38032;53.326;6.472;2023-11-21T05:35:15;10.10;99.90
52016;DHT22;38032;53.326;6.472;2023-11-21T05:37:42;10.00;99.90
52016;DHT22;38032;53.326;6.472;2023-11-21T05:40:09;10.00;99.90
52016;DHT22;38032;53.326;6.472;2023-11-21T05:42:35;10.00;99.90
52016;DHT22;38032;53.326;6.472;2023-11-21T05:45:01;9.90;99.90
52016;DHT22;38032;53.326;6.472;2023-11-21T05:47:37;9.90;99.90
52016;DHT22;38032;53.326;6.472;2023-11-21T05:50:04;9.90;99.90
52016;DHT22;38032;53.326;6.472;2023-11-21T05:52:31;9.80;99.90
52016;DHT22;38032;53.326;6.472;2023-11-21T05:54:58;9.80;99.90
52016;DHT22;38032;53.326;6.472;2023-11-21T05:57:24;9.80;99.90
52016;DHT22;38032;53.326;6.472;2023-11-21T05:59:49;9.80;99.90
52016;DHT22;38032;53.326;6.472;2023-11-21T06:02:15;9.70;99.90
52016;DHT22;38032;53.326;6.472;2023-11-21T06:04:41;9.70;99.90
52016;DHT22;38032;53.326;6.472;2023-11-21T06:07:07;9.70;99.90
52016;DHT22;38032;53.326;6.472;2023-11-21T06:09:32;9.70;99.90
52016;DHT22;38032;53.326;6.472;2023-11-21T06:11:58;9.70;99.90
52016;DHT22;38032;53.326;6.472;2023-11-21T06:14:24;9.60;99.90
52016;DHT22;38032;53.326;6.472;2023-11-21T06:16:50;9.60;99.90
52016;DHT22;38032;53.326;6.472;2023-11-21T06:19:18;9.60;99.90
52016;DHT22;38032;53.326;6.472;2023-11-21T06:21:46;9.60;99.90
52016;DHT22;38032;53.326;6.472;2023-11-21T06:24:13;9.60;99.90
52016;DHT22;38032;53.326;6.472;2023-11-21T06:26:40;9.50;99.90
52016;DHT22;38032;53.326;6.472;2023-11-21T06:29:06;9.60;99.90
52016;DHT22;38032;53.326;6.472;2023-11-21T06:31:32;9.50;99.90
52016;DHT22;38032;53.326;6.472;2023-11-21T06:33:58;9.50;99.90
52016;DHT22;38032;53.326;6.472;2023-11-21T06:36:25;9.50;99.90
52016;DHT22;38032;53.326;6.472;2023-11-21T06:38:52;9.50;99.90
52016;DHT22;38032;53.326;6.472;2023-11-21T06:41:18;9.50;99.90
52016;DHT22;38032;53.326;6.472;2023-11-21T06:43:44;9.50;99.90
52016;DHT22;38032;53.326;6.472;2023-11-21T06:46:12;9.50;99.90
52016;DHT22;38032;53.326;6.472;2023-11-21T06:48:42;9.50;99.90
52016;DHT22;38032;53.326;6.472;2023-11-21T06:51:08;9.50;99.90
52016;DHT22;38032;53.326;6.472;2023-11-21T06:53:34;9.40;99.90
52016;DHT22;38032;53.326;6.472;2023-11-21T06:56:01;9.40;99.90
52016;DHT22;38032;53.326;6.472;2023-11-21T06:58:26;9.40;99.90
52016;DHT22;38032;53.326;6.472;2023-11-21T07:00:52;9.40;99.90
52016;DHT22;38032;53.326;6.472;2023-11-21T07:03:18;9.40;99.90
52016;DHT22;38032;53.326;6.472;2023-11-21T07:05:45;9.40;99.90
52016;DHT22;38032;53.326;6.472;2023-11-21T07:08:11;9.30;99.90
52016;DHT22;38032;53.326;6.472;2023-11-21T07:10:38;9.30;99.90
52016;DHT22;38032;53.326;6.472;2023-11-21T07:13:04;9.30;99.90
52016;DHT22;38032;53.326;6.472;2023-11-21T07:15:30;9.30;99.90
52016;DHT22;38032;53.326;6.472;2023-11-21T07:17:55;9.30;99.90
52016;DHT22;38032;53.326;6.472;2023-11-21T07:20:21;9.30;99.90
52016;DHT22;38032;53.326;6.472;2023-11-21T07:22:47;9.30;99.90
52016;DHT22;38032;53.326;6.472;2023-11-21T07:25:13;9.30;99.90
52016;DHT22;38032;53.326;6.472;2023-11-21T07:27:39;9.30;99.90
52016;DHT22;38032;53.326;6.472;2023-11-21T07:30:05;9.20;99.90
52016;DHT22;38032;53.326;6.472;2023-11-21T07:32:33;9.20;99.90
52016;DHT22;38032;53.326;6.472;2023-11-21T07:34:59;9.20;99.90
52016;DHT22;38032;53.326;6.472;2023-11-21T07:37:26;9.20;99.90
52016;DHT22;38032;53.326;6.472;2023-11-21T07:39:58;9.20;99.90
52016;DHT22;38032;53.326;6.472;2023-11-21T07:42:24;9.20;99.90
52016;DHT22;38032;53.326;6.472;2023-11-21T07:44:52;9.20;99.90
52016;DHT22;38032;53.326;6.472;2023-11-21T07:47:17;9.10;99.90
52016;DHT22;38032;53.326;6.472;2023-11-21T07:49:43;9.10;99.90
52016;DHT22;38032;53.326;6.472;2023-11-21T07:52:10;9.10;99.90
52016;DHT22;38032;53.326;6.472;2023-11-21T07:54:36;9.10;99.90
52016;DHT22;38032;53.326;6.472;2023-11-21T07:57:02;9.10;99.90
52016;DHT22;38032;53.326;6.472;2023-11-21T07:59:29;9.10;99.90
52016;DHT22;38032;53.326;6.472;2023-11-21T08:01:56;9.10;99.90
52016;DHT22;38032;53.326;6.472;2023-11-21T08:04:21;9.10;99.90
52016;DHT22;38032;53.326;6.472;2023-11-21T08:06:47;9.10;99.90
52016;DHT22;38032;53.326;6.472;2023-11-21T08:09:14;9.10;99.90
52016;DHT22;38032;53.326;6.472;2023-11-21T08:11:41;9.10;99.90
52016;DHT22;38032;53.326;6.472;2023-11-21T08:14:07;9.10;99.90
52016;DHT22;38032;53.326;6.472;2023-11-21T08:16:33;9.10;99.90
52016;DHT22;38032;53.326;6.472;2023-11-21T08:18:59;9.10;99.90
52016;DHT22;38032;53.326;6.472;2023-11-21T08:21:24;9.10;99.90
52016;DHT22;38032;53.326;6.472;2023-11-21T08:23:50;9.10;99.90
52016;DHT22;38032;53.326;6.472;2023-11-21T08:26:20;9.00;99.90
52016;DHT22;38032;53.326;6.472;2023-11-21T08:28:46;9.10;99.90
52016;DHT22;38032;53.326;6.472;2023-11-21T08:31:13;9.10;99.90
52016;DHT22;38032;53.326;6.472;2023-11-21T08:33:38;9.10;99.90
52016;DHT22;38032;53.326;6.472;2023-11-21T08:36:10;9.10;99.90
52016;DHT22;38032;53.326;6.472;2023-11-21T08:38:37;9.10;99.90
52016;DHT22;38032;53.326;6.472;2023-11-21T08:41:05;9.10;99.90
52016;DHT22;38032;53.326;6.472;2023-11-21T08:43:35;9.10;99.90
52016;DHT22;38032;53.326;6.472;2023-11-21T08:46:01;9.10;99.90
52016;DHT22;38032;53.326;6.472;2023-11-21T08:48:27;9.10;99.90
52016;DHT22;38032;53.326;6.472;2023-11-21T08:50:55;9.10;99.90
52016;DHT22;38032;53.326;6.472;2023-11-21T08:53:21;9.10;99.90
52016;DHT22;38032;53.326;6.472;2023-11-21T08:55:47;9.20;99.90
52016;DHT22;38032;53.326;6.472;2023-11-21T08:58:13;9.20;99.90
52016;DHT22;38032;53.326;6.472;2023-11-21T09:00:40;9.20;99.90
52016;DHT22;38032;53.326;6.472;2023-11-21T09:03:06;9.20;99.90
52016;DHT22;38032;53.326;6.472;2023-11-21T09:05:37;9.10;99.90
52016;DHT22;38032;53.326;6.472;2023-11-21T09:08:04;9.10;99.90
52016;DHT22;38032;53.326;6.472;2023-11-21T09:10:29;9.10;99.90
52016;DHT22;38032;53.326;6.472;2023-11-21T09:12:55;9.10;99.90
52016;DHT22;38032;53.326;6.472;2023-11-21T09:15:21;9.10;99.90
52016;DHT22;38032;53.326;6.472;2023-11-21T09:17:47;9.20;99.90
52016;DHT22;38032;53.326;6.472;2023-11-21T09:20:13;9.20;99.90
52016;DHT22;38032;53.326;6.472;2023-11-21T09:22:40;9.20;99.90
52016;DHT22;38032;53.326;6.472;2023-11-21T09:25:06;9.30;99.90
52016;DHT22;38032;53.326;6.472;2023-11-21T09:27:34;9.30;99.90
52016;DHT22;38032;53.326;6.472;2023-11-21T09:30:01;9.30;99.90
52016;DHT22;38032;53.326;6.472;2023-11-21T09:32:27;9.30;99.90
52016;DHT22;38032;53.326;6.472;2023-11-21T09:34:53;9.30;99.90
52016;DHT22;38032;53.326;6.472;2023-11-21T09:37:21;9.30;99.90
52016;DHT22;38032;53.326;6.472;2023-11-21T09:39:46;9.30;99.90
52016;DHT22;38032;53.326;6.472;2023-11-21T09:42:15;9.40;99.90
52016;DHT22;38032;53.326;6.472;2023-11-21T09:44:54;9.40;99.90
52016;DHT22;38032;53.326;6.472;2023-11-21T09:47:24;9.40;99.90
52016;DHT22;38032;53.326;6.472;2023-11-21T09:49:51;9.40;99.90
52016;DHT22;38032;53.326;6.472;2023-11-21T09:52:25;9.30;99.90
52016;DHT22;38032;53.326;6.472;2023-11-21T09:54:52;9.30;99.90
52016;DHT22;38032;53.326;6.472;2023-11-21T09:57:20;9.40;99.90
52016;DHT22;38032;53.326;6.472;2023-11-21T09:59:51;9.40;99.90
52016;DHT22;38032;53.326;6.472;2023-11-21T10:02:22;9.50;99.90
52016;DHT22;38032;53.326;6.472;2023-11-21T10:04:48;9.60;99.90
52016;DHT22;38032;53.326;6.472;2023-11-21T10:07:17;9.80;99.90
52016;DHT22;38032;53.326;6.472;2023-11-21T10:09:44;10.10;99.90
52016;DHT22;38032;53.326;6.472;2023-11-21T10:12:12;10.20;99.90
52016;DHT22;38032;53.326;6.472;2023-11-21T10:14:41;10.30;99.90
52016;DHT22;38032;53.326;6.472;2023-11-21T10:17:10;10.50;99.90
52016;DHT22;38032;53.326;6.472;2023-11-21T10:19:38;10.60;99.90
52016;DHT22;38032;53.326;6.472;2023-11-21T10:22:05;10.80;99.90
52016;DHT22;38032;53.326;6.472;2023-11-21T10:24:33;10.80;99.90
52016;DHT22;38032;53.326;6.472;2023-11-21T10:26:59;10.90;99.90
52016;DHT22;38032;53.326;6.472;2023-11-21T10:29:29;10.80;99.90
52016;DHT22;38032;53.326;6.472;2023-11-21T10:31:56;10.70;99.90
52016;DHT22;38032;53.326;6.472;2023-11-21T10:34:24;10.60;99.90
52016;DHT22;38032;53.326;6.472;2023-11-21T10:36:50;10.60;99.90
52016;DHT22;38032;53.326;6.472;2023-11-21T10:39:20;10.60;99.90
52016;DHT22;38032;53.326;6.472;2023-11-21T10:41:46;10.60;99.90
52016;DHT22;38032;53.326;6.472;2023-11-21T10:44:14;10.50;99.90
52016;DHT22;38032;53.326;6.472;2023-11-21T10:46:47;10.50;99.90
52016;DHT22;38032;53.326;6.472;2023-11-21T10:49:18;10.50;99.90
52016;DHT22;38032;53.326;6.472;2023-11-21T10:51:44;10.50;99.90
52016;DHT22;38032;53.326;6.472;2023-11-21T10:54:10;10.50;99.90
52016;DHT22;38032;53.326;6.472;2023-11-21T10:56:39;10.50;99.90
52016;DHT22;38032;53.326;6.472;2023-11-21T10:59:09;10.50;99.90
52016;DHT22;38032;53.326;6.472;2023-11-21T11:01:42;10.50;99.90
52016;DHT22;38032;53.326;6.472;2023-11-21T11:04:11;10.50;99.90
52016;DHT22;38032;53.326;6.472;2023-11-21T11:06:43;10.60;99.90
52016;DHT22;38032;53.326;6.472;2023-11-21T11:09:13;10.70;99.90
52016;DHT22;38032;53.326;6.472;2023-11-21T11:11:40;10.70;99.90
52016;DHT22;38032;53.326;6.472;2023-11-21T11:14:10;10.70;99.90
52016;DHT22;38032;53.326;6.472;2023-11-21T11:16:37;10.70;99.90
52016;DHT22;38032;53.326;6.472;2023-11-21T11:19:05;10.60;99.90
52016;DHT22;38032;53.326;6.472;2023-11-21T11:26:59;10.50;99.90
52016;DHT22;38032;53.326;6.472;2023-11-21T11:29:35;10.50;99.90
52016;DHT22;38032;53.326;6.472;2023-11-21T11:32:16;10.50;99.90
52016;DHT22;38032;53.326;6.472;2023-11-21T11:34:57;10.60;99.90
52016;DHT22;38032;53.326;6.472;2023-11-21T11:37:26;10.70;99.90
52016;DHT22;38032;53.326;6.472;2023-11-21T11:39:52;10.80;99.90
52016;DHT22;38032;53.326;6.472;2023-11-21T11:42:21;10.90;99.90
52016;DHT22;38032;53.326;6.472;2023-11-21T11:44:49;10.90;99.90
52016;DHT22;38032;53.326;6.472;2023-11-21T11:47:22;11.00;99.90
52016;DHT22;38032;53.326;6.472;2023-11-21T11:50:09;11.10;99.90
52016;DHT22;38032;53.326;6.472;2023-11-21T11:52:43;11.10;99.90
52016;DHT22;38032;53.326;6.472;2023-11-21T11:55:11;11.20;99.90
52016;DHT22;38032;53.326;6.472;2023-11-21T11:57:40;11.10;99.90
52016;DHT22;38032;53.326;6.472;2023-11-21T12:02:44;11.00;99.90
52016;DHT22;38032;53.326;6.472;2023-11-21T12:05:14;11.00;99.90
52016;DHT22;38032;53.326;6.472;2023-11-21T12:07:52;10.90;99.90
52016;DHT22;38032;53.326;6.472;2023-11-21T12:10:22;10.80;99.90
52016;DHT22;38032;53.326;6.472;2023-11-21T12:12:52;10.80;99.90
52016;DHT22;38032;53.326;6.472;2023-11-21T12:15:18;10.80;99.90
52016;DHT22;38032;53.326;6.472;2023-11-21T12:17:45;10.80;99.90
52016;DHT22;38032;53.326;6.472;2023-11-21T12:20:13;10.60;99.90
52016;DHT22;38032;53.326;6.472;2023-11-21T12:22:44;10.60;99.90
52016;DHT22;38032;53.326;6.472;2023-11-21T12:25:10;10.50;99.90
52016;DHT22;38032;53.326;6.472;2023-11-21T12:27:42;10.40;99.90
52016;DHT22;38032;53.326;6.472;2023-11-21T12:30:08;10.30;99.90
52016;DHT22;38032;53.326;6.472;2023-11-21T12:32:39;10.30;99.90
52016;DHT22;38032;53.326;6.472;2023-11-21T12:35:08;10.20;99.90
52016;DHT22;38032;53.326;6.472;2023-11-21T12:37:36;10.10;99.90
52016;DHT22;38032;53.326;6.472;2023-11-21T12:40:04;10.10;99.90
52016;DHT22;38032;53.326;6.472;2023-11-21T12:42:32;10.00;99.90
52016;DHT22;38032;53.326;6.472;2023-11-21T12:45:20;10.00;99.90
52016;DHT22;38032;53.326;6.472;2023-11-21T12:47:48;9.90;99.90
52016;DHT22;38032;53.326;6.472;2023-11-21T12:50:19;9.90;99.90
52016;DHT22;38032;53.326;6.472;2023-11-21T12:52:50;9.90;99.90
52016;DHT22;38032;53.326;6.472;2023-11-21T12:55:18;9.90;99.90
52016;DHT22;38032;53.326;6.472;2023-11-21T12:57:48;9.90;99.90
52016;DHT22;38032;53.326;6.472;2023-11-21T13:00:18;9.80;99.90
52016;DHT22;38032;53.326;6.472;2023-11-21T13:02:54;9.80;99.90
52016;DHT22;38032;53.326;6.472;2023-11-21T13:05:27;9.70;99.90
52016;DHT22;38032;53.326;6.472;2023-11-21T13:07:55;9.70;99.90
52016;DHT22;38032;53.326;6.472;2023-11-21T13:10:25;9.60;99.90
52016;DHT22;38032;53.326;6.472;2023-11-21T13:12:55;9.60;99.90
52016;DHT22;38032;53.326;6.472;2023-11-21T13:15:24;9.70;99.90
52016;DHT22;38032;53.326;6.472;2023-11-21T13:17:51;9.60;99.90
52016;DHT22;38032;53.326;6.472;2023-11-21T13:20:17;9.60;99.90
52016;DHT22;38032;53.326;6.472;2023-11-21T13:22:48;9.50;99.90
52016;DHT22;38032;53.326;6.472;2023-11-21T13:25:16;9.50;99.90
52016;DHT22;38032;53.326;6.472;2023-11-21T13:27:44;9.50;99.90
52016;DHT22;38032;53.326;6.472;2023-11-21T13:30:12;9.50;99.90
52016;DHT22;38032;53.326;6.472;2023-11-21T13:32:44;9.50;99.90
52016;DHT22;38032;53.326;6.472;2023-11-21T13:35:12;9.50;99.90
52016;DHT22;38032;53.326;6.472;2023-11-21T13:37:56;9.50;99.90
52016;DHT22;38032;53.326;6.472;2023-11-21T13:40:26;9.40;99.90
52016;DHT22;38032;53.326;6.472;2023-11-21T13:42:54;9.40;99.90
52016;DHT22;38032;53.326;6.472;2023-11-21T13:45:22;9.40;99.90
52016;DHT22;38032;53.326;6.472;2023-11-21T13:47:49;9.30;99.90
52016;DHT22;38032;53.326;6.472;2023-11-21T13:50:18;9.40;99.90
52016;DHT22;38032;53.326;6.472;2023-11-21T13:52:49;9.30;99.90
52016;DHT22;38032;53.326;6.472;2023-11-21T13:55:17;9.30;99.90
52016;DHT22;38032;53.326;6.472;2023-11-21T13:57:43;9.30;99.90
52016;DHT22;38032;53.326;6.472;2023-11-21T14:00:12;9.30;99.90
52016;DHT22;38032;53.326;6.472;2023-11-21T14:02:58;9.30;99.90
52016;DHT22;38032;53.326;6.472;2023-11-21T14:05:27;9.30;99.90
52016;DHT22;38032;53.326;6.472;2023-11-21T14:07:56;9.20;99.90
52016;DHT22;38032;53.326;6.472;2023-11-21T14:10:28;9.20;99.90
52016;DHT22;38032;53.326;6.472;2023-11-21T14:13:02;9.20;99.90
52016;DHT22;38032;53.326;6.472;2023-11-21T14:15:28;9.10;99.90
52016;DHT22;38032;53.326;6.472;2023-11-21T14:17:54;9.10;99.90
52016;DHT22;38032;53.326;6.472;2023-11-21T14:20:21;9.10;99.90
52016;DHT22;38032;53.326;6.472;2023-11-21T14:22:46;9.00;99.90
52016;DHT22;38032;53.326;6.472;2023-11-21T14:25:12;9.10;99.90
52016;DHT22;38032;53.326;6.472;2023-11-21T14:27:39;9.00;99.90
52016;DHT22;38032;53.326;6.472;2023-11-21T14:30:06;9.00;99.90
52016;DHT22;38032;53.326;6.472;2023-11-21T14:32:32;9.00;99.90
52016;DHT22;38032;53.326;6.472;2023-11-21T14:34:58;9.00;99.90
52016;DHT22;38032;53.326;6.472;2023-11-21T14:37:23;9.00;99.90
52016;DHT22;38032;53.326;6.472;2023-11-21T14:39:49;8.90;99.90
52016;DHT22;38032;53.326;6.472;2023-11-21T14:42:15;8.90;99.90
52016;DHT22;38032;53.326;6.472;2023-11-21T14:44:41;8.90;99.90
52016;DHT22;38032;53.326;6.472;2023-11-21T14:47:08;8.90;99.90
52016;DHT22;38032;53.326;6.472;2023-11-21T14:49:42;8.90;99.90
52016;DHT22;38032;53.326;6.472;2023-11-21T14:52:20;8.90;99.90
52016;DHT22;38032;53.326;6.472;2023-11-21T14:55:00;8.80;99.90
52016;DHT22;38032;53.326;6.472;2023-11-21T14:57:46;8.80;99.90
52016;DHT22;38032;53.326;6.472;2023-11-21T15:00:20;8.80;99.90
52016;DHT22;38032;53.326;6.472;2023-11-21T15:02:59;8.80;99.90
52016;DHT22;38032;53.326;6.472;2023-11-21T15:05:26;8.80;99.90
52016;DHT22;38032;53.326;6.472;2023-11-21T15:07:54;8.80;99.90
52016;DHT22;38032;53.326;6.472;2023-11-21T15:10:22;8.80;99.90
52016;DHT22;38032;53.326;6.472;2023-11-21T15:13:03;8.70;99.90
52016;DHT22;38032;53.326;6.472;2023-11-21T15:15:29;8.70;99.90
52016;DHT22;38032;53.326;6.472;2023-11-21T15:17:58;8.70;99.90
52016;DHT22;38032;53.326;6.472;2023-11-21T15:20:24;8.60;99.90
52016;DHT22;38032;53.326;6.472;2023-11-21T15:22:52;8.60;99.90
52016;DHT22;38032;53.326;6.472;2023-11-21T15:25:18;8.70;99.90
52016;DHT22;38032;53.326;6.472;2023-11-21T15:27:44;8.70;99.90
52016;DHT22;38032;53.326;6.472;2023-11-21T15:30:09;8.70;99.90
52016;DHT22;38032;53.326;6.472;2023-11-21T15:32:35;8.70;99.90
52016;DHT22;38032;53.326;6.472;2023-11-21T15:35:01;8.70;99.90
52016;DHT22;38032;53.326;6.472;2023-11-21T15:37:27;8.70;99.90
52016;DHT22;38032;53.326;6.472;2023-11-21T15:39:54;8.70;99.90
52016;DHT22;38032;53.326;6.472;2023-11-21T15:42:20;8.70;99.90
52016;DHT22;38032;53.326;6.472;2023-11-21T15:44:46;8.70;99.90
52016;DHT22;38032;53.326;6.472;2023-11-21T15:47:11;8.60;99.90